Байкал

Карта отелей и гостиниц, располагающихся рядом с аэропортом Байкал :

Байкал
Улан-Удэ
Бурятия 51° 48' 28.0188" N, 107° 26' 17.88" E
Код аэродрома ИКАО
UIUU
Код аэродрома RU
УИУУ
Координаты
N51.80778° E107.43830°
Превышение над уровнем моря
516
Основная полоса
08R/26L
Курс магнитный
083/263
Длина основной ВПП
3000
Ширина основной ВПП
47
Покрытие основной ВПП
Твёрдое (железобетон)
Освещение ВПП
Постоянное
Тип: 
Аэродром
Класс аэродрома: 
Международный
Принадлежность: 
ГА
Статус: 
Действующий
Сайт: 
http://www.airportbaikal.ru/
E-mail аэродрома: 
mail@airportbaikal.ru
Страна: 
Россия
Регион: 
Бурятия
Город: 
Улан-Удэ
Дополнительная информация: 
Горный. Оператор: ОАО «Аэропорт Байкал». Грузонапряженность ИВПП до 190 т. До 2008 г. носил название "Мухино". Военный индекс: XIUU / ЬИУУ. Ген. директор: Киселёв Алексей Леонидович
Схемы аэропортов: 
Погода: 

Авиационная погода в аэропорту Байкал

Регион: 
Погода METAR: 
UIUU 221800Z 06001MPS 6000 -SN SCT043 M14/M17 Q1027 R08/490245 NOSIG RMK QFE724/0966
Время наблюдения
2022-01-22T18:00:00Z
Температура C
-14.0
Точка росы
-17.0
Направление ветра
60
Скорость ветра (узлы)
2
Метео видимость
3.73
Облачность
SCT
Нижняя граница облачности (футы)
4300
Явления погоды
-SN
Условия полета
MVFR
Аэропорт подробнее: 
SCT – разбросанная отдельная облачность;
-SN – слабый снег;

Найти трансфер

С помощью этой формы Вы можете найти трансфер из аэропорта Байкал в город, аэропорт или вокзал:

Погода в аэропортах:

Авиационная погода в Магнитогорске

Погода METAR: 
USCM 221800Z 31002MPS 4700 BR SCT040 M20/M21 Q1028 R18/090060 TEMPO 0300 FZFG VV002 RMK QFE733
Время наблюдения
2022-01-22T18:00:00Z
Температура C
-20.0
Точка росы
-21.0
Направление ветра
310
Скорость ветра (узлы)
4
Метео видимость
2.92
Облачность
SCT
Нижняя граница облачности (футы)
4000
Явления погоды
BR
Условия полета
IFR
Аэропорт подробнее: 
SCT – разбросанная отдельная облачность;
BR – дымка (видимость от 1 до 9 км);

Авиационная погода в Москва - Домодедово

Погода METAR: 
UUDD 221800Z 10003MPS 1400 1100S R14R/P2000U R14C/P2000D SN SCT008 M04/M06 Q1011 R14R/590335 R14C/590337 TEMPO 1200 SHSN SCT011CB
Время наблюдения
2022-01-22T18:00:00Z
Температура C
-4.0
Точка росы
-6.0
Направление ветра
100
Скорость ветра (узлы)
6
Метео видимость
0.87
Облачность
SCT
Нижняя граница облачности (футы)
800
Явления погоды
SN
Условия полета
LIFR
Аэропорт подробнее: 
SCT – разбросанная отдельная облачность;
SN – снег;

Авиационная погода в Перми

Регион: 
Погода METAR: 
USPP 221800Z 11003MPS 5000 -SN BR OVC015 M15/M17 Q1029 R21/090060 NOSIG RMK QFE760
Время наблюдения
2022-01-22T18:00:00Z
Температура C
-15.0
Точка росы
-17.0
Направление ветра
110
Скорость ветра (узлы)
6
Метео видимость
3.11
Облачность
OVC
Нижняя граница облачности (футы)
1500
Явления погоды
-SN BR
Условия полета
MVFR
Аэропорт подробнее: 
OVC – сплошная облачность;
-SN – слабый снег; BR – дымка (видимость от 1 до 9 км);

Авиационная погода в аэропорту Бесовец

Регион: 
Погода METAR: 
ULPB 221800Z AUTO 10002MPS 8000 -SN M07/M09 Q1020 RMK QFE761/1015
Время наблюдения
2022-01-22T18:00:00Z
Температура C
-7.0
Точка росы
-9.0
Направление ветра
100
Скорость ветра (узлы)
4
Метео видимость
4.97
Облачность
Нижняя граница облачности (футы)
Явления погоды
-SN
Условия полета
Аэропорт подробнее: 
-SN – слабый снег;